createdAt,value
2022-09-21T00:01:39.545Z,13.26
2022-09-21T00:04:08.081Z,13.22
2022-09-21T00:06:38.866Z,13.20
2022-09-21T00:09:09.394Z,13.21
2022-09-21T00:11:38.333Z,13.21
2022-09-21T00:14:10.563Z,13.25
2022-09-21T00:16:39.926Z,13.24
2022-09-21T00:19:08.478Z,13.23
2022-09-21T00:21:39.337Z,13.23
2022-09-21T00:24:08.289Z,13.24
2022-09-21T00:26:36.659Z,13.24
2022-09-21T00:29:05.819Z,13.23
2022-09-21T00:31:34.195Z,13.24
2022-09-21T00:34:03.780Z,13.24
2022-09-21T00:36:32.215Z,13.23
2022-09-21T00:39:03.519Z,13.21
2022-09-21T00:41:33.978Z,13.20
2022-09-21T00:44:31.219Z,13.14
2022-09-21T00:47:04.174Z,13.11
2022-09-21T00:49:34.609Z,13.10
2022-09-21T00:52:05.520Z,13.08
2022-09-21T00:54:42.126Z,13.04
2022-09-21T00:57:11.283Z,13.07
2022-09-21T00:59:40.908Z,13.08
2022-09-21T01:02:09.474Z,13.07
2022-09-21T01:04:39.029Z,13.02
2022-09-21T01:07:12.413Z,12.99
2022-09-21T01:09:43.480Z,13.01
2022-09-21T01:12:26.876Z,12.97
2022-09-21T01:15:20.724Z,12.93
2022-09-21T01:17:58.603Z,12.92
2022-09-21T01:21:02.109Z,12.90
2022-09-21T01:23:43.847Z,12.90
2022-09-21T01:26:25.183Z,12.88
2022-09-21T01:29:11.382Z,12.84
2022-09-21T01:31:47.348Z,12.82
2022-09-21T01:34:22.409Z,12.79
2022-09-21T01:36:53.699Z,12.78
2022-09-21T01:39:23.682Z,12.76
2022-09-21T01:41:54.596Z,12.75
2022-09-21T01:44:28.724Z,12.71
2022-09-21T01:46:58.689Z,12.69
2022-09-21T01:49:31.235Z,12.65
2022-09-21T01:52:03.801Z,12.65
2022-09-21T01:54:39.382Z,12.62
2022-09-21T01:57:12.654Z,12.62
2022-09-21T01:59:51.051Z,12.58
2022-09-21T02:02:26.232Z,12.57
2022-09-21T02:04:57.134Z,12.56
2022-09-21T02:07:25.723Z,12.52
2022-09-21T02:09:55.848Z,12.53
2022-09-21T02:12:24.178Z,12.49
2022-09-21T02:14:55.672Z,12.48
2022-09-21T02:17:36.193Z,12.46
2022-09-21T02:20:17.621Z,12.45
2022-09-21T02:22:56.227Z,12.43
2022-09-21T02:25:32.811Z,12.40
2022-09-21T02:28:07.400Z,12.37
2022-09-21T02:30:38.479Z,12.37
2022-09-21T02:33:12.951Z,12.33
2022-09-21T02:35:45.597Z,12.33
2022-09-21T02:38:21.081Z,12.33
2022-09-21T02:40:54.096Z,12.31
2022-09-21T02:46:10.589Z,12.28
2022-09-21T02:48:44.215Z,12.27
2022-09-21T02:51:17.329Z,12.27
2022-09-21T02:53:48.363Z,12.25
2022-09-21T02:56:18.256Z,12.22
2022-09-21T02:58:50.774Z,12.22
2022-09-21T03:01:21.879Z,12.20
2022-09-21T03:03:50.635Z,12.20
2022-09-21T03:06:18.918Z,12.23
2022-09-21T03:08:47.243Z,12.22
2022-09-21T03:11:17.800Z,12.17
2022-09-21T03:13:46.086Z,12.17
2022-09-21T03:16:14.867Z,12.18
2022-09-21T03:18:45.254Z,12.17
2022-09-21T03:21:13.674Z,12.16
2022-09-21T03:23:42.001Z,12.15
2022-09-21T03:26:10.334Z,12.14
2022-09-21T03:28:38.567Z,12.13
2022-09-21T03:31:07.434Z,12.11
2022-09-21T03:33:35.783Z,12.08
2022-09-21T03:36:05.615Z,12.11
2022-09-21T03:38:33.932Z,12.07
2022-09-21T03:41:02.242Z,12.06
2022-09-21T03:43:30.781Z,12.06
2022-09-21T03:45:59.279Z,12.04
2022-09-21T03:48:27.804Z,12.03
2022-09-21T03:50:56.374Z,12.02
2022-09-21T03:53:26.181Z,11.99
2022-09-21T03:55:54.498Z,11.98
2022-09-21T03:58:22.725Z,11.96
2022-09-21T04:00:51.060Z,11.94
2022-09-21T04:03:19.299Z,11.93
2022-09-21T04:05:47.582Z,11.92
2022-09-21T04:08:15.807Z,11.93
2022-09-21T04:10:45.524Z,11.91
2022-09-21T04:13:13.874Z,11.92
2022-09-21T04:15:42.150Z,11.91
2022-09-21T04:18:10.525Z,11.90
2022-09-21T04:20:38.753Z,11.88
2022-09-21T04:23:07.859Z,11.83
2022-09-21T04:25:36.225Z,11.81
2022-09-21T04:28:05.933Z,11.78
2022-09-21T04:30:37.705Z,11.78
2022-09-21T04:33:06.308Z,11.77
2022-09-21T04:35:34.606Z,11.76
2022-09-21T04:38:03.461Z,11.75
2022-09-21T04:40:31.773Z,11.77
2022-09-21T04:43:00.154Z,11.76
2022-09-21T04:45:30.062Z,11.75
2022-09-21T04:47:58.365Z,11.73
2022-09-21T04:50:26.666Z,11.72
2022-09-21T04:53:04.690Z,11.72
2022-09-21T04:55:33.171Z,11.68
2022-09-21T04:58:01.520Z,11.67
2022-09-21T05:00:31.876Z,11.67
2022-09-21T05:03:00.229Z,11.64
2022-09-21T05:05:28.422Z,11.62
2022-09-21T05:07:56.753Z,11.63
2022-09-21T05:10:23.956Z,11.62
2022-09-21T05:12:52.649Z,11.57
2022-09-21T05:15:22.103Z,11.59
2022-09-21T05:17:51.694Z,11.57
2022-09-21T05:20:19.998Z,11.57
2022-09-21T05:22:48.322Z,11.58
2022-09-21T05:25:17.586Z,11.56
2022-09-21T05:27:45.854Z,11.55
2022-09-21T05:30:15.557Z,11.57
2022-09-21T05:32:49.643Z,11.58
2022-09-21T05:35:31.289Z,11.56
2022-09-21T05:38:05.466Z,11.58
2022-09-21T05:40:35.097Z,11.62
2022-09-21T05:43:03.916Z,11.64
2022-09-21T05:45:32.994Z,11.68
2022-09-21T05:48:12.452Z,11.68
2022-09-21T05:50:50.835Z,11.69
2022-09-21T05:53:35.041Z,11.73
2022-09-21T05:56:08.693Z,11.76
2022-09-21T05:58:43.551Z,11.79
2022-09-21T06:01:37.450Z,11.81
2022-09-21T06:04:06.352Z,11.86
2022-09-21T06:06:36.223Z,11.92
2022-09-21T06:09:04.527Z,11.96
2022-09-21T06:11:33.593Z,12.02
2022-09-21T06:14:02.993Z,12.08
2022-09-21T06:16:38.889Z,12.13
2022-09-21T06:19:07.638Z,12.21
2022-09-21T06:21:37.271Z,12.28
2022-09-21T06:24:05.950Z,12.38
2022-09-21T06:26:34.220Z,12.49
2022-09-21T06:29:02.749Z,12.59
2022-09-21T06:31:31.405Z,12.70
2022-09-21T06:33:59.771Z,12.81
2022-09-21T06:36:28.046Z,12.94
2022-09-21T06:38:57.977Z,13.10
2022-09-21T06:41:26.394Z,13.27
2022-09-21T06:43:56.842Z,13.45
2022-09-21T06:46:25.215Z,13.64
2022-09-21T06:48:53.966Z,13.83
2022-09-21T06:51:24.200Z,14.04
2022-09-21T06:53:57.784Z,14.21
2022-09-21T06:56:27.049Z,14.36
2022-09-21T06:58:56.698Z,14.53
2022-09-21T07:01:25.007Z,14.67
2022-09-21T07:03:54.162Z,14.86
2022-09-21T07:06:22.528Z,15.04
2022-09-21T07:11:43.085Z,15.44
2022-09-21T07:14:11.380Z,15.65
2022-09-21T07:16:40.076Z,15.93
2022-09-21T07:19:12.048Z,16.59
2022-09-21T07:21:40.642Z,17.49
2022-09-21T07:24:12.452Z,18.51
2022-09-21T07:26:42.489Z,19.22
2022-09-21T07:29:10.813Z,19.91
2022-09-21T07:31:39.509Z,20.53
2022-09-21T07:34:07.845Z,21.02
2022-09-21T07:36:36.174Z,21.32
2022-09-21T07:39:05.291Z,21.58
2022-09-21T07:41:33.623Z,21.88
2022-09-21T07:44:03.606Z,22.14
2022-09-21T07:46:32.309Z,22.46
2022-09-21T07:49:00.817Z,22.90
2022-09-21T07:51:29.063Z,23.02
2022-09-21T07:53:58.093Z,23.36
2022-09-21T07:56:26.616Z,23.85
2022-09-21T07:59:09.087Z,24.04
2022-09-21T08:01:39.939Z,24.13
2022-09-21T08:04:09.946Z,24.23
2022-09-21T08:06:40.601Z,24.23
2022-09-21T08:09:09.530Z,24.17
2022-09-21T08:11:39.143Z,23.94
2022-09-21T08:14:07.702Z,23.81
2022-09-21T08:16:36.115Z,23.65
2022-09-21T08:19:05.897Z,23.64
2022-09-21T08:21:34.583Z,23.51
2022-09-21T08:24:03.151Z,23.42
2022-09-21T08:26:31.391Z,23.25
2022-09-21T08:28:59.726Z,23.08
2022-09-21T08:31:28.337Z,22.97
2022-09-21T08:33:57.737Z,22.77
2022-09-21T08:36:27.473Z,22.71
2022-09-21T08:38:57.036Z,22.68
2022-09-21T08:41:35.234Z,22.63
2022-09-21T08:44:11.673Z,22.66
2022-09-21T08:46:41.886Z,22.86
2022-09-21T08:49:18.646Z,23.10
2022-09-21T08:51:58.238Z,23.52
2022-09-21T08:54:35.874Z,23.81
2022-09-21T08:57:09.549Z,24.20
2022-09-21T08:59:43.850Z,24.49
2022-09-21T09:02:44.275Z,24.80
2022-09-21T09:05:32.711Z,25.15
2022-09-21T09:08:29.372Z,25.53
2022-09-21T09:11:14.598Z,26.16
2022-09-21T09:14:08.141Z,26.73
2022-09-21T09:16:49.351Z,26.94
2022-09-21T09:19:31.094Z,27.31
2022-09-21T09:22:08.657Z,27.64
2022-09-21T09:24:46.957Z,27.86
2022-09-21T09:27:21.506Z,27.61
2022-09-21T09:30:02.938Z,26.87
2022-09-21T09:32:42.493Z,26.87
2022-09-21T09:35:27.911Z,27.29
2022-09-21T09:38:11.274Z,26.82
2022-09-21T09:41:00.700Z,26.66
2022-09-21T09:43:49.974Z,27.09
2022-09-21T09:46:29.802Z,27.84
2022-09-21T09:49:30.361Z,28.71
2022-09-21T09:52:08.995Z,29.24
2022-09-21T09:54:43.628Z,29.36
2022-09-21T09:57:19.839Z,29.66
2022-09-21T09:59:55.510Z,30.23
2022-09-21T10:02:31.590Z,30.51
2022-09-21T10:05:06.441Z,30.63
2022-09-21T10:07:36.953Z,30.89
2022-09-21T10:10:32.360Z,31.27
2022-09-21T10:13:13.804Z,31.63
2022-09-21T10:15:51.106Z,31.43
2022-09-21T10:18:23.583Z,31.19
2022-09-21T10:21:04.163Z,31.16
2022-09-21T10:23:35.456Z,31.33
2022-09-21T10:26:11.569Z,31.38
2022-09-21T10:28:56.699Z,31.37
2022-09-21T10:31:28.253Z,31.64
2022-09-21T10:34:12.716Z,31.36
2022-09-21T10:36:40.821Z,30.08
2022-09-21T10:39:28.493Z,28.63
2022-09-21T10:42:03.591Z,28.48
2022-09-21T10:44:40.480Z,28.90
2022-09-21T10:47:36.164Z,29.64
2022-09-21T10:50:08.898Z,30.25
2022-09-21T10:52:40.546Z,30.62
2022-09-21T10:55:19.026Z,30.86
2022-09-21T10:57:49.212Z,30.96
2022-09-21T11:00:42.898Z,30.35
2022-09-21T11:03:48.236Z,29.41
2022-09-21T11:06:22.542Z,28.53
2022-09-21T11:08:56.248Z,27.83
2022-09-21T11:11:47.998Z,27.27
2022-09-21T11:14:36.374Z,26.89
2022-09-21T11:17:13.427Z,27.08
2022-09-21T11:19:45.475Z,28.24
2022-09-21T11:22:20.186Z,29.05
2022-09-21T11:24:55.766Z,29.08
2022-09-21T11:27:32.235Z,28.68
2022-09-21T11:30:04.189Z,28.30
2022-09-21T11:32:48.169Z,27.86
2022-09-21T11:35:33.056Z,27.79
2022-09-21T11:38:15.986Z,28.67
2022-09-21T11:41:19.106Z,29.97
2022-09-21T11:44:17.827Z,31.08
2022-09-21T11:46:57.024Z,31.53
2022-09-21T11:50:30.716Z,32.22
2022-09-21T11:53:20.458Z,32.73
2022-09-21T11:56:27.075Z,32.75
2022-09-21T11:59:14.263Z,32.99
2022-09-21T12:02:09.231Z,33.14
2022-09-21T12:04:49.242Z,33.37
2022-09-21T12:07:27.288Z,33.18
2022-09-21T12:10:10.431Z,32.94
2022-09-21T12:12:45.769Z,32.48
2022-09-21T12:15:27.219Z,32.24
2022-09-21T12:18:10.086Z,32.30
2022-09-21T12:20:54.510Z,32.14
2022-09-21T12:23:31.935Z,32.35
2022-09-21T12:26:10.897Z,32.22
2022-09-21T12:28:48.183Z,31.84
2022-09-21T12:31:23.284Z,31.56
2022-09-21T12:33:58.119Z,31.55
2022-09-21T12:36:39.558Z,31.43
2022-09-21T12:40:03.966Z,31.19
2022-09-21T12:42:39.883Z,30.96
2022-09-21T12:45:19.139Z,30.75
2022-09-21T12:47:54.873Z,30.54
2022-09-21T12:50:44.601Z,30.30
2022-09-21T12:53:19.257Z,30.11
2022-09-21T12:55:57.476Z,30.17
2022-09-21T12:58:46.795Z,29.89
2022-09-21T13:01:32.327Z,29.98
2022-09-21T13:04:25.904Z,29.75
2022-09-21T13:07:33.823Z,29.32
2022-09-21T13:10:09.230Z,29.13
2022-09-21T13:12:46.394Z,29.02
2022-09-21T13:15:27.613Z,29.33
2022-09-21T13:18:02.164Z,29.74
2022-09-21T13:20:40.643Z,29.92
2022-09-21T13:23:18.142Z,29.68
2022-09-21T13:25:50.811Z,29.52
2022-09-21T13:28:26.751Z,29.18
2022-09-21T13:31:43.852Z,28.84
2022-09-21T13:34:32.472Z,28.63
2022-09-21T13:37:33.264Z,28.38
2022-09-21T13:40:42.000Z,28.25
2022-09-21T13:43:26.962Z,28.16
2022-09-21T13:46:12.188Z,28.26
2022-09-21T13:48:42.789Z,28.18
2022-09-21T13:51:17.812Z,28.11
2022-09-21T13:53:47.250Z,27.96
2022-09-21T13:56:23.685Z,28.04
2022-09-21T13:58:58.446Z,28.17
2022-09-21T14:01:47.435Z,28.00
2022-09-21T14:04:25.227Z,27.88
2022-09-21T14:06:58.544Z,28.04
2022-09-21T14:09:31.580Z,28.38
2022-09-21T14:12:06.347Z,28.43
2022-09-21T14:14:37.437Z,28.37
2022-09-21T14:17:38.820Z,28.35
2022-09-21T14:20:30.844Z,28.48
2022-09-21T14:23:29.056Z,28.74
2022-09-21T14:25:59.422Z,28.71
2022-09-21T14:28:40.131Z,28.54
2022-09-21T14:31:19.640Z,28.38
2022-09-21T14:33:51.511Z,28.12
2022-09-21T14:36:31.215Z,27.86
2022-09-21T14:39:17.732Z,27.73
2022-09-21T14:41:53.799Z,27.64
2022-09-21T14:44:24.305Z,27.60
2022-09-21T14:47:22.669Z,27.67
2022-09-21T14:50:17.863Z,27.51
2022-09-21T14:53:01.812Z,27.06
2022-09-21T14:55:43.989Z,26.91
2022-09-21T14:58:31.544Z,26.84
2022-09-21T15:01:22.407Z,26.84
2022-09-21T15:04:09.312Z,26.89
2022-09-21T15:07:00.346Z,26.94
2022-09-21T15:10:08.454Z,26.99
2022-09-21T15:12:46.695Z,27.04
2022-09-21T15:15:30.932Z,27.08
2022-09-21T15:18:01.946Z,27.05
2022-09-21T15:20:32.167Z,26.90
2022-09-21T15:23:02.094Z,26.73
2022-09-21T15:25:34.782Z,26.63
2022-09-21T15:28:04.528Z,26.54
2022-09-21T15:30:34.234Z,26.51
2022-09-21T15:33:03.423Z,26.47
2022-09-21T15:35:33.620Z,26.40
2022-09-21T15:38:02.276Z,26.35
2022-09-21T15:40:33.872Z,26.26
2022-09-21T15:43:05.646Z,26.17
2022-09-21T15:45:54.735Z,26.06
2022-09-21T15:48:23.351Z,25.97
2022-09-21T15:50:58.191Z,25.91
2022-09-21T15:53:31.008Z,25.86
2022-09-21T15:56:01.546Z,25.81
2022-09-21T15:58:37.112Z,25.72
2022-09-21T16:01:11.460Z,25.66
2022-09-21T16:03:40.870Z,25.59
2022-09-21T16:06:25.594Z,25.45
2022-09-21T16:08:54.034Z,25.38
2022-09-21T16:11:35.350Z,25.25
2022-09-21T16:14:28.290Z,25.08
2022-09-21T16:17:22.062Z,24.85
2022-09-21T16:20:16.040Z,24.65
2022-09-21T16:22:47.462Z,24.54
2022-09-21T16:25:28.837Z,24.39
2022-09-21T16:27:58.982Z,24.25
2022-09-21T16:30:45.173Z,24.05
2022-09-21T16:33:40.990Z,23.90
2022-09-21T16:36:43.879Z,23.75
2022-09-21T16:39:15.740Z,23.62
2022-09-21T16:42:02.511Z,23.44
2022-09-21T16:44:34.411Z,23.31
2022-09-21T16:47:04.769Z,23.17
2022-09-21T16:49:35.723Z,23.07
2022-09-21T16:52:03.951Z,22.96
2022-09-21T16:54:32.017Z,22.77
2022-09-21T16:57:01.695Z,22.53
2022-09-21T16:59:30.216Z,22.32
2022-09-21T17:01:59.438Z,22.12
2022-09-21T17:04:30.842Z,21.95
2022-09-21T17:07:00.429Z,21.76
2022-09-21T17:09:32.448Z,21.57
2022-09-21T17:12:01.759Z,21.37
2022-09-21T17:14:35.292Z,21.19
2022-09-21T17:17:08.412Z,21.03
2022-09-21T17:19:38.377Z,20.88
2022-09-21T17:22:07.262Z,20.71
2022-09-21T17:24:50.332Z,20.57
2022-09-21T17:27:21.467Z,20.42
2022-09-21T17:29:50.636Z,20.29
2022-09-21T17:32:20.890Z,20.16
2022-09-21T17:34:56.379Z,20.04
2022-09-21T17:37:25.296Z,19.91
2022-09-21T17:39:54.298Z,19.81
2022-09-21T17:42:25.762Z,19.72
2022-09-21T17:45:19.631Z,19.56
2022-09-21T17:47:50.287Z,19.42
2022-09-21T17:50:24.142Z,19.30
2022-09-21T17:53:12.355Z,19.25
2022-09-21T17:55:44.494Z,19.11
2022-09-21T17:58:33.734Z,19.00
2022-09-21T18:01:07.614Z,18.94
2022-09-21T18:03:40.978Z,18.84
2022-09-21T18:06:12.166Z,18.72
2022-09-21T18:08:41.545Z,18.62
2022-09-21T18:11:20.127Z,18.58
2022-09-21T18:13:55.207Z,18.52
2022-09-21T18:16:28.314Z,18.41
2022-09-21T18:19:21.459Z,18.33
2022-09-21T18:21:58.110Z,18.26
2022-09-21T18:24:31.233Z,18.21
2022-09-21T18:27:00.888Z,18.10
2022-09-21T18:29:40.734Z,18.02
2022-09-21T18:41:13.949Z,17.58
2022-09-21T18:44:51.339Z,17.49
2022-09-21T18:53:00.374Z,17.23
2022-09-21T19:04:30.830Z,16.93
2022-09-21T19:07:04.209Z,16.91
2022-09-21T19:09:41.371Z,16.86
2022-09-21T19:12:19.263Z,16.79
2022-09-21T19:14:56.196Z,16.75
2022-09-21T19:17:38.862Z,16.69
2022-09-21T19:20:30.059Z,16.63
2022-09-21T19:23:07.422Z,16.62
2022-09-21T19:25:44.740Z,16.60
2022-09-21T19:28:34.158Z,16.54
2022-09-21T19:31:09.638Z,16.51
2022-09-21T19:33:49.921Z,16.48
2022-09-21T19:36:21.093Z,16.43
2022-09-21T19:38:49.582Z,16.41
2022-09-21T19:41:35.174Z,16.36
2022-09-21T19:44:17.195Z,16.32
2022-09-21T19:46:54.615Z,16.30
2022-09-21T19:49:25.389Z,16.27
2022-09-21T19:51:58.029Z,16.24
2022-09-21T19:54:44.382Z,16.20
2022-09-21T20:00:48.995Z,15.98
2022-09-21T20:04:25.803Z,15.90
2022-09-21T20:07:08.129Z,15.85
2022-09-21T20:09:42.161Z,15.85
2022-09-21T20:12:18.870Z,15.82
2022-09-21T20:14:54.474Z,15.78
2022-09-21T20:17:32.369Z,15.72
2022-09-21T20:20:08.876Z,15.68
2022-09-21T20:22:40.498Z,15.67
2022-09-21T20:25:16.610Z,15.65
2022-09-21T20:27:48.381Z,15.63
2022-09-21T20:30:19.041Z,15.61
2022-09-21T20:32:50.733Z,15.59
2022-09-21T20:35:20.594Z,15.56
2022-09-21T20:37:50.573Z,15.53
2022-09-21T20:40:20.435Z,15.51
2022-09-21T20:42:48.698Z,15.48
2022-09-21T20:45:17.463Z,15.46
2022-09-21T20:47:45.598Z,15.44
2022-09-21T20:53:43.370Z,15.40
2022-09-21T20:56:13.072Z,15.37
2022-09-21T20:58:41.230Z,15.32
2022-09-21T21:01:10.714Z,15.28
2022-09-21T21:03:39.080Z,15.23
2022-09-21T21:06:11.845Z,15.19
2022-09-21T21:08:40.374Z,15.14
2022-09-21T21:11:10.738Z,15.11
2022-09-21T21:13:39.171Z,15.12
2022-09-21T21:16:11.817Z,15.03
2022-09-21T21:18:41.335Z,14.99
2022-09-21T21:21:09.678Z,14.97
2022-09-21T21:23:58.941Z,14.95
2022-09-21T21:26:57.395Z,14.87
2022-09-21T21:29:19.061Z,14.84
2022-09-21T21:31:47.874Z,14.81
2022-09-21T21:34:16.291Z,14.77
2022-09-21T21:36:44.686Z,14.74
2022-09-21T21:39:12.720Z,14.68
2022-09-21T21:41:43.495Z,14.66
2022-09-21T21:44:15.209Z,14.63
2022-09-21T21:46:45.993Z,14.60
2022-09-21T21:49:14.421Z,14.55
2022-09-21T21:51:44.583Z,14.54
2022-09-21T21:54:13.107Z,14.52
2022-09-21T21:56:42.628Z,14.50
2022-09-21T21:59:14.171Z,14.50
2022-09-21T22:01:45.510Z,14.45
2022-09-21T22:04:14.324Z,14.44
2022-09-21T22:06:42.674Z,14.43
2022-09-21T22:09:12.004Z,14.41
2022-09-21T22:11:40.165Z,14.39
2022-09-21T22:14:11.637Z,14.36
2022-09-21T22:16:39.805Z,14.35
2022-09-21T22:19:09.446Z,14.32
2022-09-21T22:21:41.834Z,14.29
2022-09-21T22:24:10.725Z,14.32
2022-09-21T22:26:40.837Z,14.30
2022-09-21T22:29:11.840Z,14.30
2022-09-21T22:31:42.015Z,14.27
2022-09-21T22:34:10.777Z,14.23
2022-09-21T22:36:39.601Z,14.24
2022-09-21T22:39:09.138Z,14.27
2022-09-21T22:41:38.833Z,14.23
2022-09-21T22:44:07.664Z,14.11
2022-09-21T22:46:38.047Z,14.06
2022-09-21T22:49:06.261Z,14.03
2022-09-21T22:51:35.250Z,13.97
2022-09-21T22:54:03.330Z,13.94
2022-09-21T22:56:32.898Z,13.95
2022-09-21T22:59:02.351Z,13.96
2022-09-21T23:01:33.594Z,13.94
2022-09-21T23:04:06.088Z,13.93
2022-09-21T23:06:37.036Z,13.93
2022-09-21T23:09:08.256Z,13.93
2022-09-21T23:11:38.669Z,13.93
2022-09-21T23:14:07.078Z,13.91
2022-09-21T23:16:35.291Z,13.89
2022-09-21T23:19:05.246Z,13.86
2022-09-21T23:21:33.373Z,13.82
2022-09-21T23:24:03.208Z,13.79
2022-09-21T23:26:34.052Z,13.76
2022-09-21T23:29:04.329Z,13.70
2022-09-21T23:31:33.593Z,13.70
2022-09-21T23:34:07.408Z,13.67
2022-09-21T23:36:37.182Z,13.66
2022-09-21T23:39:07.140Z,13.63
2022-09-21T23:41:36.602Z,13.60
2022-09-21T23:44:05.979Z,13.58
2022-09-21T23:46:35.917Z,13.55
2022-09-21T23:49:06.154Z,13.52
2022-09-21T23:51:34.652Z,13.51
2022-09-21T23:54:02.922Z,13.46
2022-09-21T23:56:31.749Z,13.45
2022-09-21T23:59:00.338Z,13.41
